CRL2 weather

Westport / Rideau Lakes Airport
Westport, Ontario, Canada

Public forecast

Using degrees Celsius for public forecast. Weather courtesy of forecast.io.

Closest aviation weather report (METAR) to Westport / Rideau Lakes Airport

Closest report is Kingston Norman Rogers Airport, 27.9 nm (51.6 km) SSW. Retrieved 2020/01/26 04:00 UTC (1 hour ago):

CYGK 260400Z 15004KT 3SM -SN BR OVC002 01/00 A2974 RMK ST8 LAST STFD OBS/NXT 161100Z SLP076

Closest aviation forecast (TAF) to Westport / Rideau Lakes Airport

Forecast is more than 6 hours old.

Closest forecast is Kingston Norman Rogers Airport, 27.9 nm (51.6 km) SSW. Retrieved 2020/01/25 20:00 UTC (9 hours ago):

TAF CYGK 251938Z 2520/2604 05006KT 11/2SM -SN BR BKN005 OVC015 TEMPO 2520/2522 3SM -SNRA BR FEW008 OVC015 FM252200 06006KT 21/2SM -SN BR OVC005 TEMPO 2522/2604 6SM -SNRA BR OVC007 BECMG 2600/2602 VRB03KT RMK NXT FCST BY 260200Z